createdAt,value
2024-04-26T00:01:21.294Z,98979.19
2024-04-26T00:03:51.796Z,98983.38
2024-04-26T00:06:21.747Z,98982.94
2024-04-26T00:08:51.725Z,98981.28
2024-04-26T00:11:21.642Z,98979.19
2024-04-26T00:13:54.816Z,98977.84
2024-04-26T00:16:24.908Z,98973.88
2024-04-26T00:18:55.655Z,98967.66
2024-04-26T00:21:25.573Z,98961.78
2024-04-26T00:23:55.471Z,98959.81
2024-04-26T00:26:25.430Z,98952.78
2024-04-26T00:28:59.629Z,98957.38
2024-04-26T00:31:30.080Z,98954.16
2024-04-26T00:34:00.483Z,98951.28
2024-04-26T00:36:30.929Z,98946.19
2024-04-26T00:39:03.110Z,98941.75
2024-04-26T00:41:33.658Z,98940.09
2024-04-26T00:44:11.875Z,98923.97
2024-04-26T00:46:44.974Z,98918.16
2024-04-26T00:49:15.412Z,98928.13
2024-04-26T00:51:47.559Z,98918.53
2024-04-26T00:54:20.283Z,98915.78
2024-04-26T00:56:51.722Z,98925.72
2024-04-26T00:59:24.950Z,98910.66
2024-04-26T01:01:55.268Z,98918.44
2024-04-26T01:04:28.403Z,98914.97
2024-04-26T01:06:58.791Z,98903.94
2024-04-26T01:09:30.444Z,98906.56
2024-04-26T01:12:01.019Z,98913.13
2024-04-26T01:14:34.600Z,98923.44
2024-04-26T01:17:04.655Z,98911.88
2024-04-26T01:19:36.456Z,98914.91
2024-04-26T01:22:12.161Z,98903.69
2024-04-26T01:24:44.713Z,98919.69
2024-04-26T01:27:14.678Z,98930.19
2024-04-26T01:29:44.495Z,98917.16
2024-04-26T01:32:14.339Z,98915.25
2024-04-26T01:34:44.607Z,98902.84
2024-04-26T01:37:14.823Z,98898.22
2024-04-26T01:39:47.223Z,98892.34
2024-04-26T01:42:16.968Z,98898.41
2024-04-26T01:44:46.883Z,98897.50
2024-04-26T01:47:16.904Z,98901.72
2024-04-26T01:49:54.345Z,98894.56
2024-04-26T01:52:24.596Z,98911.25
2024-04-26T01:54:54.739Z,98925.78
2024-04-26T01:57:24.537Z,98918.88
2024-04-26T01:59:51.964Z,98922.41
2024-04-26T02:02:22.515Z,98921.91
2024-04-26T02:04:49.812Z,98931.09
2024-04-26T02:07:19.833Z,98951.94
2024-04-26T02:09:47.412Z,98955.84
2024-04-26T02:12:20.900Z,98954.56
2024-04-26T02:14:48.614Z,98952.72
2024-04-26T02:17:19.229Z,98951.28
2024-04-26T02:19:46.611Z,98942.06
2024-04-26T02:22:19.760Z,98947.28
2024-04-26T02:24:47.359Z,98947.03
2024-04-26T02:27:19.887Z,98950.81
2024-04-26T02:29:52.679Z,98944.59
2024-04-26T02:32:22.562Z,98949.06
2024-04-26T02:34:53.425Z,98944.47
2024-04-26T02:37:23.450Z,98947.81
2024-04-26T02:39:53.834Z,98944.66
2024-04-26T02:42:26.916Z,98946.66
2024-04-26T02:44:57.455Z,98946.41
2024-04-26T02:47:29.574Z,98938.03
2024-04-26T02:50:02.070Z,98938.69
2024-04-26T02:52:32.171Z,98929.00
2024-04-26T02:55:02.144Z,98922.31
2024-04-26T02:57:34.657Z,98925.44
2024-04-26T03:00:04.850Z,98913.22
2024-04-26T03:02:34.836Z,98918.84
2024-04-26T03:05:04.819Z,98913.97
2024-04-26T03:07:34.628Z,98912.06
2024-04-26T03:10:04.478Z,98902.47
2024-04-26T03:12:37.131Z,98910.84
2024-04-26T03:15:07.568Z,98907.00
2024-04-26T03:17:42.864Z,98901.97
2024-04-26T03:20:13.646Z,98907.66
2024-04-26T03:22:47.655Z,98903.38
2024-04-26T03:25:17.620Z,98902.22
2024-04-26T03:27:50.151Z,98899.81
2024-04-26T03:30:20.663Z,98903.69
2024-04-26T03:32:50.720Z,98895.34
2024-04-26T03:35:21.287Z,98897.00
2024-04-26T03:37:51.105Z,98895.78
2024-04-26T03:40:21.239Z,98892.94
2024-04-26T03:42:58.509Z,98895.00
2024-04-26T03:45:28.666Z,98889.53
2024-04-26T03:47:59.616Z,98890.19
2024-04-26T03:50:29.679Z,98897.22
2024-04-26T03:52:59.844Z,98886.50
2024-04-26T03:55:32.752Z,98880.34
2024-04-26T03:58:05.948Z,98875.16
2024-04-26T04:00:35.707Z,98863.19
2024-04-26T04:03:06.049Z,98859.66
2024-04-26T04:05:35.990Z,98854.31
2024-04-26T04:08:08.483Z,98849.34
2024-04-26T04:10:38.694Z,98856.06
2024-04-26T04:13:11.290Z,98849.84
2024-04-26T04:15:41.505Z,98859.00
2024-04-26T04:18:12.730Z,98862.88
2024-04-26T04:20:42.677Z,98862.78
2024-04-26T04:23:12.735Z,98862.47
2024-04-26T04:25:44.396Z,98860.94
2024-04-26T04:28:18.082Z,98869.88
2024-04-26T04:30:47.999Z,98862.09
2024-04-26T04:33:20.194Z,98863.22
2024-04-26T04:35:53.179Z,98872.88
2024-04-26T04:38:23.048Z,98871.25
2024-04-26T04:40:53.226Z,98877.22
2024-04-26T04:43:25.687Z,98875.78
2024-04-26T04:45:55.524Z,98885.97
2024-04-26T04:48:26.267Z,98897.00
2024-04-26T04:50:57.621Z,98919.03
2024-04-26T04:53:27.535Z,98932.53
2024-04-26T04:55:57.563Z,98938.84
2024-04-26T04:58:30.654Z,98944.81
2024-04-26T05:01:00.844Z,98946.31
2024-04-26T05:03:30.948Z,98945.78
2024-04-26T05:06:01.028Z,98946.16
2024-04-26T05:08:30.884Z,98956.28
2024-04-26T05:11:03.129Z,98952.38
2024-04-26T05:13:35.502Z,98959.19
2024-04-26T05:16:05.366Z,98963.66
2024-04-26T05:18:35.584Z,98962.41
2024-04-26T05:21:05.580Z,98967.69
2024-04-26T05:23:36.022Z,98978.34
2024-04-26T05:26:05.967Z,98978.56
2024-04-26T05:28:38.725Z,98968.56
2024-04-26T05:31:08.875Z,98984.25
2024-04-26T05:33:40.408Z,99000.00
2024-04-26T05:36:12.067Z,98996.00
2024-04-26T05:38:42.060Z,99004.56
2024-04-26T05:41:14.982Z,98997.81
2024-04-26T05:43:47.567Z,98999.22
2024-04-26T05:46:18.709Z,98997.84
2024-04-26T05:48:48.855Z,98999.00
2024-04-26T05:51:19.267Z,98992.53
2024-04-26T05:53:50.212Z,98984.16
2024-04-26T05:56:20.236Z,98986.94
2024-04-26T05:58:53.565Z,98975.84
2024-04-26T06:01:24.037Z,98971.31
2024-04-26T06:03:54.842Z,98973.38
2024-04-26T06:06:25.799Z,98979.47
2024-04-26T06:08:56.058Z,98982.63
2024-04-26T06:11:26.108Z,98993.16
2024-04-26T06:13:58.782Z,98990.41
2024-04-26T06:16:31.893Z,98990.63
2024-04-26T06:19:07.410Z,98998.28
2024-04-26T06:21:40.492Z,98993.91
2024-04-26T06:24:10.567Z,98991.72
2024-04-26T06:26:41.339Z,98995.50
2024-04-26T06:29:14.586Z,98999.91
2024-04-26T06:31:45.275Z,99004.97
2024-04-26T06:34:15.474Z,98999.38
2024-04-26T06:36:49.385Z,99002.97
2024-04-26T06:39:19.610Z,99003.84
2024-04-26T06:41:49.877Z,99001.75
2024-04-26T06:44:22.768Z,99001.41
2024-04-26T06:46:52.739Z,99002.69
2024-04-26T06:49:23.659Z,99004.69
2024-04-26T06:51:53.531Z,99017.28
2024-04-26T06:54:23.212Z,99013.53
2024-04-26T06:56:52.952Z,99022.53
2024-04-26T06:59:29.025Z,99015.19
2024-04-26T07:02:01.801Z,99021.53
2024-04-26T07:04:32.301Z,99008.81
2024-04-26T07:07:02.593Z,99013.22
2024-04-26T07:09:32.631Z,99018.63
2024-04-26T07:12:03.147Z,99020.56
2024-04-26T07:14:35.572Z,99020.88
2024-04-26T07:17:06.231Z,99030.59
2024-04-26T07:19:40.472Z,99026.09
2024-04-26T07:22:11.247Z,99020.13
2024-04-26T07:24:41.079Z,99018.97
2024-04-26T07:27:11.058Z,99020.59
2024-04-26T07:29:44.940Z,99017.66
2024-04-26T07:32:14.845Z,99018.31
2024-04-26T07:34:46.989Z,99022.56
2024-04-26T07:37:17.606Z,99012.91
2024-04-26T07:39:48.080Z,99018.91
2024-04-26T07:42:18.076Z,99023.75
2024-04-26T07:44:50.723Z,99028.22
2024-04-26T07:47:23.362Z,99023.41
2024-04-26T07:49:55.599Z,99025.22
2024-04-26T07:52:25.499Z,99033.03
2024-04-26T07:54:56.984Z,99028.66
2024-04-26T07:57:27.564Z,99030.56
2024-04-26T08:00:00.696Z,99036.53
2024-04-26T08:02:31.096Z,99035.25
2024-04-26T08:05:03.367Z,99037.94
2024-04-26T08:07:33.737Z,99042.78
2024-04-26T08:10:03.917Z,99041.19
2024-04-26T08:12:33.821Z,99039.44
2024-04-26T08:15:08.108Z,99034.47
2024-04-26T08:17:38.436Z,99035.88
2024-04-26T08:20:13.017Z,99043.09
2024-04-26T08:22:44.175Z,99054.16
2024-04-26T08:25:22.339Z,99055.53
2024-04-26T08:27:56.976Z,99055.28
2024-04-26T08:30:29.704Z,99052.50
2024-04-26T08:33:05.670Z,99058.97
2024-04-26T08:35:38.054Z,99052.19
2024-04-26T08:38:08.491Z,99063.19
2024-04-26T08:40:38.889Z,99069.00
2024-04-26T08:43:12.041Z,99069.41
2024-04-26T08:45:46.630Z,99064.56
2024-04-26T08:48:19.544Z,99071.19
2024-04-26T08:50:50.051Z,99067.56
2024-04-26T08:53:24.064Z,99068.53
2024-04-26T08:55:59.837Z,99068.63
2024-04-26T08:58:30.366Z,99071.16
2024-04-26T09:01:06.920Z,99068.38
2024-04-26T09:03:37.323Z,99070.06
2024-04-26T09:06:08.330Z,99066.19
2024-04-26T09:08:38.337Z,99066.59
2024-04-26T09:11:10.429Z,99063.66
2024-04-26T09:13:40.402Z,99065.59
2024-04-26T09:16:13.292Z,99081.50
2024-04-26T09:18:43.370Z,99075.13
2024-04-26T09:21:15.301Z,99071.03
2024-04-26T09:23:46.403Z,99072.66
2024-04-26T09:26:16.276Z,99074.56
2024-04-26T09:28:48.657Z,99076.34
2024-04-26T09:31:23.895Z,99070.81
2024-04-26T09:33:56.648Z,99076.97
2024-04-26T09:36:28.513Z,99076.25
2024-04-26T09:39:02.083Z,99069.13
2024-04-26T09:41:32.539Z,99072.16
2024-04-26T09:44:04.412Z,99081.78
2024-04-26T09:46:37.992Z,99076.03
2024-04-26T09:49:11.530Z,99071.31
2024-04-26T09:51:47.869Z,99070.78
2024-04-26T09:54:20.293Z,99063.31
2024-04-26T09:56:50.648Z,99065.44
2024-04-26T09:59:21.191Z,99068.16
2024-04-26T10:01:54.604Z,99068.34
2024-04-26T10:04:24.699Z,99067.03
2024-04-26T10:06:56.257Z,99066.03
2024-04-26T10:09:29.401Z,99076.66
2024-04-26T10:12:01.771Z,99076.81
2024-04-26T10:14:34.138Z,99074.13
2024-04-26T10:17:15.470Z,99076.84
2024-04-26T10:19:46.049Z,99087.22
2024-04-26T10:22:16.390Z,99079.66
2024-04-26T10:24:49.551Z,99078.47
2024-04-26T10:27:31.395Z,99068.56
2024-04-26T10:30:01.915Z,99070.03
2024-04-26T10:32:39.864Z,99071.06
2024-04-26T10:35:21.504Z,99073.72
2024-04-26T10:37:59.348Z,99069.81
2024-04-26T10:40:29.792Z,99071.50
2024-04-26T10:43:00.505Z,99072.34
2024-04-26T10:45:30.524Z,99063.94
2024-04-26T10:48:03.354Z,99076.09
2024-04-26T10:50:33.362Z,99070.84
2024-04-26T10:53:09.914Z,99083.00
2024-04-26T10:55:40.703Z,99080.50
2024-04-26T10:58:11.688Z,99067.84
2024-04-26T11:00:42.406Z,99064.56
2024-04-26T11:03:16.523Z,99068.63
2024-04-26T11:05:47.769Z,99062.94
2024-04-26T11:08:28.531Z,99064.06
2024-04-26T11:10:58.977Z,99059.53
2024-04-26T11:13:28.839Z,99058.47
2024-04-26T11:15:59.817Z,99055.53
2024-04-26T11:18:36.843Z,99056.56
2024-04-26T11:21:07.688Z,99064.50
2024-04-26T11:23:38.159Z,99064.84
2024-04-26T11:26:08.234Z,99072.69
2024-04-26T11:28:38.358Z,99061.25
2024-04-26T11:31:08.454Z,99055.28
2024-04-26T11:33:44.536Z,99048.00
2024-04-26T11:36:19.513Z,99057.66
2024-04-26T11:39:14.535Z,99053.22
2024-04-26T11:41:45.064Z,99066.94
2024-04-26T11:44:16.231Z,99063.91
2024-04-26T11:46:46.659Z,99061.84
2024-04-26T11:49:21.483Z,99058.06
2024-04-26T11:55:23.442Z,99051.66
2024-04-26T11:57:53.671Z,99052.50
2024-04-26T12:00:23.909Z,99052.16
2024-04-26T12:02:54.096Z,99045.28
2024-04-26T12:05:26.848Z,99039.81
2024-04-26T12:07:56.910Z,99046.09
2024-04-26T12:10:27.483Z,99041.34
2024-04-26T12:12:57.897Z,99050.22
2024-04-26T12:15:28.639Z,99048.22
2024-04-26T12:17:59.773Z,99049.53
2024-04-26T12:20:34.108Z,99050.81
2024-04-26T12:23:04.505Z,99061.31
2024-04-26T12:25:35.619Z,99067.47
2024-04-26T12:28:07.270Z,99073.84
2024-04-26T12:30:38.040Z,99078.44
2024-04-26T12:33:09.775Z,99075.81
2024-04-26T12:35:43.438Z,99080.75
2024-04-26T12:38:13.923Z,99076.19
2024-04-26T12:40:46.155Z,99071.34
2024-04-26T12:43:18.338Z,99075.72
2024-04-26T12:45:49.934Z,99062.47
2024-04-26T12:48:21.949Z,99062.41
2024-04-26T12:50:54.608Z,99069.78
2024-04-26T12:53:24.970Z,99068.47
2024-04-26T12:55:55.022Z,99064.88
2024-04-26T12:58:25.246Z,99057.22
2024-04-26T13:00:55.417Z,99045.78
2024-04-26T13:03:26.040Z,99044.56
2024-04-26T13:05:59.433Z,99038.91
2024-04-26T13:08:29.673Z,99027.34
2024-04-26T13:10:59.858Z,99035.88
2024-04-26T13:13:30.008Z,99026.59
2024-04-26T13:16:00.140Z,99026.56
2024-04-26T13:18:32.197Z,99029.78
2024-04-26T13:21:05.479Z,99027.41
2024-04-26T13:23:35.424Z,99044.09
2024-04-26T13:26:06.115Z,99053.66
2024-04-26T13:28:36.449Z,99056.75
2024-04-26T13:31:06.873Z,99044.41
2024-04-26T13:33:37.125Z,99035.31
2024-04-26T13:36:10.722Z,99030.84
2024-04-26T13:38:40.974Z,99029.81
2024-04-26T13:41:15.109Z,99028.19
2024-04-26T13:43:45.365Z,99026.22
2024-04-26T13:46:15.592Z,99048.03
2024-04-26T13:48:49.023Z,99048.41
2024-04-26T13:51:22.228Z,99043.78
2024-04-26T13:53:54.486Z,99033.19
2024-04-26T13:56:25.331Z,99034.06
2024-04-26T13:58:55.181Z,99033.44
2024-04-26T14:01:26.822Z,99034.00
2024-04-26T14:03:57.385Z,99033.19
2024-04-26T14:06:33.720Z,99032.53
2024-04-26T14:09:04.505Z,99029.53
2024-04-26T14:11:34.635Z,99021.38
2024-04-26T14:14:04.537Z,99020.00
2024-04-26T14:16:36.930Z,99021.50
2024-04-26T14:19:07.538Z,99016.09
2024-04-26T14:21:40.229Z,99019.59
2024-04-26T14:24:10.365Z,99025.03
2024-04-26T14:26:40.391Z,99022.31
2024-04-26T14:29:10.450Z,99036.75
2024-04-26T14:31:40.562Z,99042.25
2024-04-26T14:34:10.533Z,99043.75
2024-04-26T14:36:46.163Z,99042.50
2024-04-26T14:39:16.401Z,99036.31
2024-04-26T14:41:48.158Z,99037.00
2024-04-26T14:44:19.272Z,99030.03
2024-04-26T14:46:49.359Z,99021.94
2024-04-26T14:49:20.048Z,99032.44
2024-04-26T14:51:52.976Z,99024.25
2024-04-26T14:54:25.408Z,99020.38
2024-04-26T14:56:55.650Z,99022.63
2024-04-26T14:59:25.655Z,99024.66
2024-04-26T15:01:55.787Z,99020.06
2024-04-26T15:04:26.159Z,99025.50
2024-04-26T15:06:59.562Z,99024.00
2024-04-26T15:09:29.724Z,99022.41
2024-04-26T15:12:02.306Z,99028.13
2024-04-26T15:14:33.610Z,99033.13
2024-04-26T15:17:07.443Z,99039.41
2024-04-26T15:19:41.125Z,99033.59
2024-04-26T15:22:14.023Z,99034.28
2024-04-26T15:24:44.558Z,99022.03
2024-04-26T15:27:14.659Z,99034.16
2024-04-26T15:29:44.555Z,99019.06
2024-04-26T15:32:15.199Z,99021.25
2024-04-26T15:34:45.165Z,99026.66
2024-04-26T15:37:17.527Z,99029.69
2024-04-26T15:39:47.686Z,99030.19
2024-04-26T15:42:17.735Z,99032.19
2024-04-26T15:44:49.713Z,99034.88
2024-04-26T15:47:20.456Z,99032.34
2024-04-26T15:49:52.287Z,99035.63
2024-04-26T15:52:25.229Z,99031.34
2024-04-26T15:54:56.687Z,99040.00
2024-04-26T15:57:27.329Z,99036.38
2024-04-26T15:59:57.302Z,99032.47
2024-04-26T16:02:31.681Z,99046.69
2024-04-26T16:05:01.564Z,99030.91
2024-04-26T16:07:34.499Z,99038.38
2024-04-26T16:10:04.651Z,99036.03
2024-04-26T16:12:35.167Z,99044.53
2024-04-26T16:15:07.372Z,99044.78
2024-04-26T16:17:41.314Z,99040.03
2024-04-26T16:20:14.062Z,99032.69
2024-04-26T16:22:46.845Z,99038.09
2024-04-26T16:25:17.676Z,99046.56
2024-04-26T16:27:48.522Z,99048.88
2024-04-26T16:30:18.428Z,99039.97
2024-04-26T16:32:49.724Z,99050.78
2024-04-26T16:35:22.926Z,99050.94
2024-04-26T16:37:55.684Z,99048.31
2024-04-26T16:40:28.193Z,99045.13
2024-04-26T16:42:59.022Z,99047.66
2024-04-26T16:45:29.695Z,99044.22
2024-04-26T16:47:59.867Z,99039.03
2024-04-26T16:50:30.686Z,99041.78
2024-04-26T16:53:03.768Z,99038.13
2024-04-26T16:55:33.832Z,99039.25
2024-04-26T16:58:05.133Z,99045.13
2024-04-26T17:00:35.128Z,99035.66
2024-04-26T17:03:06.187Z,99037.06
2024-04-26T17:05:38.908Z,99043.00
2024-04-26T17:08:12.667Z,99050.13
2024-04-26T17:10:43.875Z,99047.25
2024-04-26T17:13:13.526Z,99046.75
2024-04-26T17:15:49.671Z,99048.03
2024-04-26T17:18:19.735Z,99048.75
2024-04-26T17:20:50.062Z,99051.53
2024-04-26T17:23:22.935Z,99053.66
2024-04-26T17:25:53.499Z,99055.25
2024-04-26T17:28:23.852Z,99055.38
2024-04-26T17:30:58.155Z,99052.66
2024-04-26T17:33:28.238Z,99059.50
2024-04-26T17:35:58.456Z,99069.22
2024-04-26T17:38:41.234Z,99066.75
2024-04-26T17:41:15.275Z,99066.94
2024-04-26T17:43:46.064Z,99072.19
2024-04-26T17:46:18.692Z,99065.75
2024-04-26T17:48:49.240Z,99071.09
2024-04-26T17:51:19.860Z,99074.59
2024-04-26T17:53:52.424Z,99070.94
2024-04-26T17:56:25.000Z,99075.38
2024-04-26T17:58:55.902Z,99077.91
2024-04-26T18:01:27.077Z,99079.19
2024-04-26T18:04:03.197Z,99071.91
2024-04-26T18:06:33.410Z,99081.59
2024-04-26T18:09:06.351Z,99078.34
2024-04-26T18:11:36.734Z,99070.25
2024-04-26T18:14:07.062Z,99081.13
2024-04-26T18:16:37.326Z,99081.44
2024-04-26T18:19:07.960Z,99079.78
2024-04-26T18:21:41.431Z,99076.78
2024-04-26T18:24:14.744Z,99090.41
2024-04-26T18:26:45.695Z,99088.06
2024-04-26T18:29:15.733Z,99087.81
2024-04-26T18:31:47.090Z,99093.28
2024-04-26T18:34:16.958Z,99093.41
2024-04-26T18:36:47.939Z,99103.44
2024-04-26T18:39:23.208Z,99102.16
2024-04-26T18:41:53.268Z,99103.38
2024-04-26T18:44:25.492Z,99108.72
2024-04-26T18:46:55.908Z,99104.88
2024-04-26T18:49:28.852Z,99112.53
2024-04-26T18:51:58.919Z,99113.47
2024-04-26T18:54:31.726Z,99120.91
2024-04-26T18:57:02.371Z,99121.97
2024-04-26T18:59:34.400Z,99121.16
2024-04-26T19:02:04.880Z,99121.16
2024-04-26T19:04:38.666Z,99127.34
2024-04-26T19:07:09.584Z,99133.09
2024-04-26T19:09:43.284Z,99132.00
2024-04-26T19:12:13.949Z,99128.59
2024-04-26T19:14:46.302Z,99132.13
2024-04-26T19:17:16.420Z,99137.88
2024-04-26T19:19:48.589Z,99136.56
2024-04-26T19:22:19.905Z,99140.13
2024-04-26T19:24:54.923Z,99151.38
2024-04-26T19:27:27.368Z,99139.56
2024-04-26T19:30:01.525Z,99149.03
2024-04-26T19:32:31.947Z,99150.81
2024-04-26T19:35:02.476Z,99152.69
2024-04-26T19:37:34.455Z,99155.31
2024-04-26T19:40:07.816Z,99151.19
2024-04-26T19:42:42.087Z,99147.91
2024-04-26T19:45:12.255Z,99150.91
2024-04-26T19:47:45.393Z,99156.81
2024-04-26T19:50:17.848Z,99153.50
2024-04-26T19:53:03.889Z,99157.59
2024-04-26T19:55:52.729Z,99160.41
2024-04-26T19:58:23.808Z,99152.63
2024-04-26T20:00:57.917Z,99150.03
2024-04-26T20:03:28.139Z,99147.97
2024-04-26T20:05:58.450Z,99147.22
2024-04-26T20:08:30.781Z,99147.41
2024-04-26T20:11:07.697Z,99150.75
2024-04-26T20:13:37.645Z,99151.44
2024-04-26T20:16:08.085Z,99147.50
2024-04-26T20:18:40.225Z,99148.09
2024-04-26T20:21:11.582Z,99149.63
2024-04-26T20:23:41.598Z,99138.72
2024-04-26T20:26:16.468Z,99142.75
2024-04-26T20:28:49.710Z,99136.03
2024-04-26T20:31:20.739Z,99141.72
2024-04-26T20:33:51.082Z,99141.72
2024-04-26T20:36:21.162Z,99138.63
2024-04-26T20:38:51.580Z,99136.66
2024-04-26T20:41:24.746Z,99134.91
2024-04-26T20:43:54.718Z,99135.41
2024-04-26T20:46:25.688Z,99131.53
2024-04-26T20:48:55.738Z,99128.59
2024-04-26T20:51:25.643Z,99124.81
2024-04-26T20:53:56.200Z,99127.19
2024-04-26T20:56:32.605Z,99125.78
2024-04-26T20:59:07.705Z,99121.66
2024-04-26T21:01:39.092Z,99115.75
2024-04-26T21:04:11.367Z,99108.56
2024-04-26T21:06:41.651Z,99116.44
2024-04-26T21:09:11.647Z,99107.38
2024-04-26T21:11:44.561Z,99103.00
2024-04-26T21:14:16.708Z,99100.88
2024-04-26T21:16:43.956Z,99100.66
2024-04-26T21:19:14.094Z,99104.06
2024-04-26T21:21:43.999Z,99101.38
2024-04-26T21:24:14.298Z,99099.25
2024-04-26T21:26:49.831Z,99098.50
2024-04-26T21:29:20.422Z,99097.91
2024-04-26T21:31:50.689Z,99101.84
2024-04-26T21:34:21.546Z,99097.91
2024-04-26T21:36:51.604Z,99103.09
2024-04-26T21:39:21.777Z,99106.66
2024-04-26T21:41:54.643Z,99108.16
2024-04-26T21:44:25.030Z,99100.84
2024-04-26T21:46:55.396Z,99099.66
2024-04-26T21:49:25.632Z,99103.31
2024-04-26T21:51:56.988Z,99099.78
2024-04-26T21:54:27.087Z,99103.31
2024-04-26T21:57:00.457Z,99101.88
2024-04-26T21:59:30.459Z,99104.97
2024-04-26T22:02:00.827Z,99100.84
2024-04-26T22:04:30.820Z,99101.41
2024-04-26T22:07:01.109Z,99096.94
2024-04-26T22:09:31.020Z,99099.66
2024-04-26T22:12:05.639Z,99099.75
2024-04-26T22:14:37.492Z,99102.09
2024-04-26T22:17:08.219Z,99101.78
2024-04-26T22:19:38.174Z,99101.41
2024-04-26T22:22:09.364Z,99102.66
2024-04-26T22:24:39.403Z,99097.34
2024-04-26T22:27:15.762Z,99095.47
2024-04-26T22:29:48.315Z,99102.28
2024-04-26T22:32:18.341Z,99100.66
2024-04-26T22:34:48.579Z,99109.88
2024-04-26T22:37:19.124Z,99109.34
2024-04-26T22:39:51.378Z,99116.41
2024-04-26T22:42:25.070Z,99113.09
2024-04-26T22:44:55.508Z,99118.09
2024-04-26T22:47:25.684Z,99111.63
2024-04-26T22:49:55.455Z,99109.00
2024-04-26T22:52:28.072Z,99105.25
2024-04-26T22:54:57.880Z,99108.94
2024-04-26T22:57:30.766Z,99111.06
2024-04-26T23:00:03.275Z,99113.16
2024-04-26T23:02:33.403Z,99113.28
2024-04-26T23:05:04.971Z,99116.94
2024-04-26T23:07:35.245Z,99116.81
2024-04-26T23:10:05.805Z,99121.06
2024-04-26T23:12:38.579Z,99130.19
2024-04-26T23:15:09.490Z,99125.41
2024-04-26T23:17:39.621Z,99133.63
2024-04-26T23:20:10.870Z,99130.56
2024-04-26T23:22:40.708Z,99132.09
2024-04-26T23:25:11.426Z,99138.09
2024-04-26T23:27:43.939Z,99134.66
2024-04-26T23:30:14.674Z,99132.06
2024-04-26T23:32:44.959Z,99127.38
2024-04-26T23:35:14.755Z,99120.09
2024-04-26T23:37:44.991Z,99123.63
2024-04-26T23:40:14.938Z,99124.78
2024-04-26T23:42:47.733Z,99131.25
2024-04-26T23:45:17.869Z,99132.22
2024-04-26T23:47:50.508Z,99126.84
2024-04-26T23:50:22.101Z,99111.69
2024-04-26T23:52:51.971Z,99124.28
2024-04-26T23:55:22.937Z,99122.28
2024-04-26T23:57:55.369Z,99130.44
